Latest Weather Observations for Mackay Racecourse

IDQ60801

Issued at 11:02 pm EST Monday 23 October 2017 (issued every 30 minutes, with the page automatically refreshed every 10 minutes)

About weather observations | Map of weather stations | Latest weather observations for QLD | Other Formats
Station Details ID: 033329 Name: OORALEA RACECOURSE (MACKAY TURF CLUB) Lat: -21.17 Lon: 149.15 Height: 10.31 m
Data from the previous 72 hours. | See also: Recent months for locations in Queensland
Date/Time
EST
Temp
°C
App
Temp
°C
Dew
Point
°C
Rel
Hum
%
Delta-T
°C
Wind Press
QNH
hPa
Press
MSL
hPa
Rain since
9am
mm
Dir  Spd
km/h
Gust
km/h
Spd
kts
Gust
kts
23/11:00pm 18.8 21.4 17.6 93 0.7 CALM 0 0 0 0 - - 0.0
23/10:30pm 19.2 21.9 17.7 91 0.9 CALM 0 0 0 0 - - 0.0
23/10:00pm 19.8 21.8 17.8 88 1.2 ENE 4 6 2 3 - - 0.0
23/09:30pm 20.4 21.9 17.6 84 1.7 ENE 6 6 3 3 - - 0.0
23/09:00pm 23.1 25.1 17.8 72 3.3 ENE 4 6 2 3 - - 0.0
23/08:30pm 23.3 26.0 17.7 71 3.5 CALM 0 4 0 2 - - 0.0
23/08:00pm 23.5 25.4 17.7 70 3.6 ENE 4 7 2 4 - - 0.0
23/07:30pm 23.8 25.5 18.0 70 3.6 ENE 6 7 3 4 - - 0.0
23/07:00pm 23.9 25.6 18.1 70 3.6 ENE 6 9 3 5 - - 0.0
23/06:30pm 24.2 25.4 17.4 65 4.2 ENE 7 13 4 7 - - 0.0
23/06:00pm 24.5 25.3 17.2 63 4.5 E 9 17 5 9 - - 0.0
23/05:30pm 24.9 24.9 17.1 62 4.8 E 13 19 7 10 - - 0.0
23/05:00pm 25.1 25.1 17.3 62 4.9 ENE 13 20 7 11 - - 0.0
23/04:30pm 25.3 25.0 18.2 64 4.5 ENE 17 22 9 12 - - 0.0
23/04:00pm 25.3 24.9 18.0 64 4.6 E 17 26 9 14 - - 0.0
23/03:30pm 25.8 25.7 18.7 65 4.5 E 17 26 9 14 - - 0.0
23/03:00pm 25.1 24.7 18.1 65 4.4 ENE 17 26 9 14 - - 0.0
23/02:30pm 25.6 25.4 19.3 68 4.0 E 19 30 10 16 - - 0.0
23/02:00pm 25.9 25.8 19.5 68 4.1 E 19 26 10 14 - - 0.0
23/01:30pm 25.7 25.3 18.9 66 4.3 E 19 28 10 15 - - 0.0
23/01:00pm 25.8 25.1 19.4 67 4.1 E 22 32 12 17 - - 0.0
23/12:30pm 25.8 25.8 19.7 69 3.9 E 19 30 10 16 - - 0.0
23/12:00pm 25.2 24.1 18.6 67 4.2 E 22 32 12 17 - - 0.0
23/11:30am 24.7 23.4 19.1 71 3.6 E 24 32 13 17 - - 0.0
23/11:00am 24.4 23.9 19.2 73 3.3 ESE 20 28 11 15 - - 0.0
23/10:30am 25.0 24.5 19.1 70 3.8 ESE 20 30 11 16 - - 0.0
23/10:00am 24.7 24.4 19.5 73 3.3 SE 20 28 11 15 - - 0.0
23/09:30am 23.9 24.0 19.2 75 3.0 SE 17 28 9 15 - - 0.0
23/09:00am 25.9 29.4 19.5 68 4.1 CALM 0 2 0 1 - - 1.8
23/08:30am 25.1 28.6 20.4 75 3.1 SE 2 7 1 4 - - 1.8
23/08:00am 23.8 26.5 20.3 81 2.3 SE 6 9 3 5 - - 1.8
23/07:30am 22.8 25.5 21.3 91 1.0 E 9 11 5 6 - - 1.8
23/07:00am 21.1 24.1 20.1 94 0.6 ENE 4 9 2 5 - - 1.8
23/06:30am 20.0 23.0 19.3 96 0.4 ENE 2 6 1 3 - - 1.8
23/06:00am 19.3 21.3 18.8 97 0.3 ENE 6 9 3 5 - - 1.8
23/05:30am 18.9 21.1 18.4 97 0.3 ENE 4 6 2 3 - - 1.8
23/05:00am 19.1 21.4 18.6 97 0.3 ENE 4 6 2 3 - - 1.8
23/04:30am 19.2 21.2 18.7 97 0.3 ENE 6 9 3 5 - - 1.8
23/04:00am 19.1 21.0 18.6 97 0.3 ENE 6 7 3 4 - - 1.8
23/03:30am 19.1 21.8 18.6 97 0.3 ENE 2 7 1 4 - - 1.8
23/03:00am 19.6 22.9 19.1 97 0.3 CALM 0 0 0 0 - - 1.6
23/02:30am 19.9 23.2 19.2 96 0.4 CALM 0 0 0 0 - - 1.6
23/02:00am 20.1 23.5 19.3 95 0.5 CALM 0 0 0 0 - - 1.6
23/01:30am 20.6 24.2 19.8 95 0.5 CALM 0 0 0 0 - - 1.6
23/01:00am 20.7 23.2 19.9 95 0.5 ENE 6 9 3 5 - - 1.6
23/12:30am 21.0 23.5 19.8 93 0.8 ENE 6 9 3 5 - - 1.6
23/12:00am 21.3 24.5 20.5 95 0.5 ENE 4 6 2 3 - - 1.6
 
Date/Time
EST
Temp
°C
App
Temp
°C
Dew
Point
°C
Rel
Hum
%
Delta-T
°C
Wind Press
QNH
hPa
Press
MSL
hPa
Rain since
9am
mm
Dir  Spd
km/h
Gust
km/h
Spd
kts
Gust
kts
22/11:30pm 21.1 25.0 20.3 95 0.5 CALM 0 4 0 2 - - 1.6
22/11:00pm 20.9 23.1 19.7 93 0.8 ENE 7 11 4 6 - - 1.4
22/10:30pm 22.1 25.7 19.8 87 1.5 CALM 0 4 0 2 - - 0.2
22/10:00pm 21.6 25.1 19.5 88 1.3 CALM 0 4 0 2 - - 0.2
22/09:30pm 21.3 23.9 19.2 88 1.3 ENE 4 6 2 3 - - 0.2
22/09:00pm 21.7 24.4 18.7 83 1.9 ENE 2 6 1 3 - - 0.2
22/08:30pm 23.5 27.0 19.6 79 2.5 CALM 0 0 0 0 - - 0.2
22/08:00pm 23.5 26.5 19.2 77 2.7 ENE 2 6 1 3 - - 0.2
22/07:30pm 23.8 26.0 19.3 76 2.9 ENE 6 9 3 5 - - 0.2
22/07:00pm 23.9 26.2 19.4 76 2.9 ENE 6 7 3 4 - - 0.2
22/06:30pm 24.1 25.4 19.4 75 3.0 ENE 11 17 6 9 - - 0.2
22/06:00pm 24.3 25.5 19.1 73 3.3 E 11 15 6 8 - - 0.2
22/05:30pm 24.6 25.0 19.0 71 3.6 E 15 19 8 10 - - 0.2
22/05:00pm 25.0 25.4 18.9 69 3.9 E 15 22 8 12 - - 0.2
22/04:30pm 25.8 26.6 19.0 66 4.4 ENE 13 20 7 11 - - 0.2
22/04:00pm 25.8 26.4 18.5 64 4.6 ENE 13 24 7 13 - - 0.2
22/03:30pm 25.8 25.8 19.0 66 4.4 ENE 17 24 9 13 - - 0.2
22/03:00pm 25.6 25.2 18.8 66 4.3 E 19 26 10 14 - - 0.2
22/02:30pm 26.4 26.0 18.8 63 4.9 E 19 26 10 14 - - 0.2
22/02:00pm 26.1 25.6 19.0 65 4.5 E 20 35 11 19 - - 0.2
22/01:30pm 26.2 25.4 18.1 61 5.1 E 19 28 10 15 - - 0.2
22/01:00pm 26.7 26.3 18.8 62 5.1 E 19 26 10 14 - - 0.2
22/12:30pm 26.8 26.9 19.9 66 4.5 E 19 30 10 16 - - 0.2
22/12:00pm 26.6 26.5 18.7 62 5.0 E 17 22 9 12 - - 0.2
22/11:30am 26.6 26.9 19.7 66 4.5 E 17 22 9 12 - - 0.2
22/11:00am 26.5 27.3 19.1 64 4.8 E 13 24 7 13 - - 0.2
22/10:30am 25.9 26.6 18.8 65 4.5 E 13 20 7 11 - - 0.2
22/10:00am 25.6 26.7 18.0 63 4.8 ESE 9 17 5 9 - - 0.2
22/09:30am 25.3 26.1 18.2 64 4.5 SE 11 17 6 9 - - 0.0
22/09:00am 23.9 24.7 18.1 70 3.6 SE 11 17 6 9 - - 2.8
22/08:30am 24.0 25.2 19.1 74 3.1 S 11 17 6 9 - - 2.8
22/08:00am 23.2 25.1 19.8 81 2.2 S 9 15 5 8 - - 2.8
22/07:30am 22.0 24.2 20.3 90 1.1 SSE 9 13 5 7 - - 2.8
22/07:00am 20.5 22.9 20.0 97 0.3 SSE 7 9 4 5 - - 2.8
22/06:30am 19.3 21.4 19.0 98 0.2 SSE 6 9 3 5 - - 2.8
22/06:00am 18.6 20.4 18.3 98 0.2 SSE 6 7 3 4 - - 2.8
22/05:30am 18.5 20.6 18.0 97 0.3 SSE 4 6 2 3 - - 2.8
22/05:00am 19.1 21.4 18.6 97 0.3 SSE 4 6 2 3 - - 2.8
22/04:30am 19.4 21.8 18.9 97 0.3 SSE 4 6 2 3 - - 2.8
22/04:00am 19.6 21.8 19.1 97 0.3 SSE 6 7 3 4 - - 2.8
22/03:30am 20.0 22.2 19.3 96 0.4 SSE 6 7 3 4 - - 2.8
22/03:00am 19.9 23.2 19.1 95 0.5 CALM 0 0 0 0 - - 2.8
22/02:30am 20.4 22.8 19.6 95 0.5 SSE 6 9 3 5 - - 2.8
22/02:00am 20.6 23.1 19.8 95 0.5 SSE 6 9 3 5 - - 2.8
22/01:30am 20.6 23.1 19.8 95 0.5 SSE 6 7 3 4 - - 2.8
22/01:00am 20.7 23.1 20.0 96 0.4 SSE 7 9 4 5 - - 2.8
22/12:30am 20.8 23.8 20.0 95 0.5 SSE 4 7 2 4 - - 2.8
22/12:00am 20.8 23.4 20.1 96 0.4 SSE 6 9 3 5 - - 2.8
 
Date/Time
EST
Temp
°C
App
Temp
°C
Dew
Point
°C
Rel
Hum
%
Delta-T
°C
Wind Press
QNH
hPa
Press
MSL
hPa
Rain since
9am
mm
Dir  Spd
km/h
Gust
km/h
Spd
kts
Gust
kts
21/11:30pm 20.8 23.4 20.1 96 0.4 SSE 6 6 3 3 - - 2.8
21/11:00pm 20.9 23.6 20.2 96 0.4 SSE 6 7 3 4 - - 2.8
21/10:30pm 20.9 23.6 20.2 96 0.4 SSE 6 9 3 5 - - 2.8
21/10:00pm 20.8 23.8 20.1 96 0.4 SSE 4 6 2 3 - - 2.8
21/09:30pm 20.8 23.8 20.1 96 0.4 SSE 4 6 2 3 - - 2.8
21/09:00pm 20.8 24.2 20.1 96 0.4 SSE 2 4 1 2 - - 2.8
21/08:30pm 20.7 23.6 19.9 95 0.5 SSE 4 7 2 4 - - 2.8
21/08:00pm 20.8 23.8 20.0 95 0.5 SSE 4 7 2 4 - - 2.8
21/07:30pm 20.7 24.0 19.9 95 0.5 SSE 2 4 1 2 - - 2.6
21/07:00pm 20.8 24.4 19.8 94 0.6 CALM 0 4 0 2 - - 2.6
21/06:30pm 21.0 23.5 19.8 93 0.8 SSE 6 7 3 4 - - 2.6
21/06:00pm 21.2 24.9 20.0 93 0.8 CALM 0 0 0 0 - - 2.4
21/05:30pm 21.3 25.1 20.1 93 0.8 CALM 0 4 0 2 - - 2.4
21/05:00pm 21.5 24.5 20.0 91 1.0 SSE 4 6 2 3 - - 2.0
21/04:30pm 21.8 25.5 19.9 89 1.2 CALM 0 0 0 0 - - 1.6
21/04:00pm 21.7 25.2 19.6 88 1.3 CALM 0 0 0 0 - - 1.0
21/03:30pm 21.5 23.9 19.6 89 1.2 SSE 6 9 3 5 - - 0.8
21/03:00pm 21.8 24.2 20.1 90 1.1 S 7 9 4 5 - - 0.4
21/02:30pm 21.7 24.3 20.5 93 0.8 S 7 13 4 7 - - 0.4
21/02:00pm 21.8 23.0 19.9 89 1.2 SSE 13 17 7 9 - - 0.0
21/01:30pm 24.0 25.5 18.9 73 3.2 SE 9 15 5 8 - - 0.0
21/01:00pm 25.2 25.8 17.7 63 4.7 E 11 15 6 8 - - 0.0
21/12:30pm 25.6 26.1 18.3 64 4.6 ENE 13 19 7 10 - - 0.0
21/12:00pm 25.9 25.9 18.1 62 4.9 E 15 20 8 11 - - 0.0
21/11:30am 26.6 27.8 20.0 67 4.3 ENE 13 20 7 11 - - 0.0
21/11:00am 25.7 26.8 18.9 66 4.3 E 11 20 6 11 - - 0.0
21/10:30am 26.1 27.6 19.0 65 4.5 E 9 13 5 7 - - 0.0
21/10:00am 26.0 27.1 17.9 61 5.1 E 9 15 5 8 - - 0.0
21/09:30am 27.0 28.5 18.0 58 5.7 E 7 13 4 7 - - 0.0
21/09:00am 26.3 28.2 18.9 63 4.7 E 7 13 4 7 - - 0.0
21/08:30am 25.2 27.4 19.1 69 3.9 SSE 6 9 3 5 - - 0.0
21/08:00am 24.3 26.8 19.8 76 2.9 SSE 6 9 3 5 - - 0.0
21/07:30am 23.2 25.3 20.2 83 1.9 SE 9 11 5 6 - - 0.0
21/07:00am 22.3 24.6 19.5 84 1.8 E 6 13 3 7 - - 0.0
21/06:30am 23.0 26.5 19.6 81 2.2 CALM 0 0 0 0 - - 0.0
21/06:00am 21.8 25.2 20.1 90 1.1 E 2 6 1 3 - - 0.0
21/05:30am 21.0 24.6 19.7 92 0.8 CALM 0 2 0 1 - - 0.0
21/05:00am 20.9 24.5 19.7 93 0.8 CALM 0 0 0 0 - - 0.0
21/04:30am 21.0 24.6 19.8 93 0.8 CALM 0 0 0 0 - - 0.0
21/04:00am 21.0 24.2 19.8 93 0.8 E 2 4 1 2 - - 0.0
21/03:30am 20.9 24.5 19.7 93 0.8 CALM 0 6 0 3 - - 0.0
21/03:00am 21.0 23.5 19.8 93 0.8 E 6 6 3 3 - - 0.0
21/02:30am 21.1 23.9 19.6 91 1.0 E 4 6 2 3 - - 0.0
21/02:00am 21.1 23.9 19.6 91 1.0 E 4 6 2 3 - - 0.0
21/01:30am 21.2 24.0 19.7 91 1.0 E 4 6 2 3 - - 0.0
21/01:00am 21.2 23.5 19.5 90 1.1 E 6 7 3 4 - - 0.0
21/12:30am 21.3 23.7 19.6 90 1.1 E 6 7 3 4 - - 0.0
21/12:00am 21.3 23.6 19.4 89 1.2 E 6 7 3 4 - - 0.0
 
Date/Time
EST
Temp
°C
App
Temp
°C
Dew
Point
°C
Rel
Hum
%
Delta-T
°C
Wind Press
QNH
hPa
Press
MSL
hPa
Rain since
9am
mm
Dir  Spd
km/h
Gust
km/h
Spd
kts
Gust
kts
20/11:30pm 21.6 24.3 18.6 83 1.9 E 2 4 1 2 - - 0.0

Other Formats:

Comma delimited format used in spreadsheet applications
http://www.bom.gov.au/fwo/IDQ60801/IDQ60801.94352.axf

JavaScript Object Notation format (JSON) in row-major order
http://www.bom.gov.au/fwo/IDQ60801/IDQ60801.94352.json